»·PEaware :: N850VJ KVGT-KSLC

N850VJ :: KVGT-KSLC

FLIGHT INFORMATION

Flight Status: Arrived
Operator: Privately registered:
United States
More flights under this callsign
Pilot: Anonymous 13363 (13363)
Aircraft: Unknown
(TBM9)
More flights by this aircraft type
Origin: KVGT North Las Vegas
United States
Destination: KSLC Salt Lake City Intl
United States
More flights between these airports :: More routes between these airports
Route: +RTTRN3 LAS V394 MMM V21 MLF DELTA5 / FRNZY QWENN5
File this flight plan on PilotEdge
Remarks: FIFE TRREEEEEE
Altitude:
(Current/Filed)
31,000ft
Speed:
(Current/Filed)
370kts
Departed: 15-Jan-18 06:28 PM
Arrived: 15-Jan-18 07:42 PM
Distance/Time
Traveled:
313nm/1:14
Distance/Time
To Go:
Arrived

Flight Plot

Page will automatically refresh every two minutes.

Flight plan parsing failed; only flown route is shown


Map Options




Map Legend


Flown Route
Filed Route
Departure Airport
Arrival Airport
Navaid (VOR, NDB)
Fix

Horizontal Profiles

Position Reports

Time Latitude Longitude Heading Altitude Ground
Speed
15-Jan-18 18:16 36.208226 -115.197776 177 2193ft 0kts
15-Jan-18 18:17 36.208226 -115.197776 177 2193ft 0kts
15-Jan-18 18:18 36.208226 -115.197776 177 2193ft 0kts
15-Jan-18 18:19 36.208226 -115.197776 177 2193ft 0kts
15-Jan-18 18:20 36.208226 -115.197776 177 2193ft 0kts
15-Jan-18 18:21 36.208226 -115.197776 177 2193ft 0kts
15-Jan-18 18:22 36.208226 -115.197776 177 2193ft 0kts
15-Jan-18 18:23 36.208226 -115.197776 177 2193ft 0kts
15-Jan-18 18:24 36.208226 -115.197776 177 2193ft 0kts
15-Jan-18 18:25 36.208226 -115.197776 177 2193ft 0kts
15-Jan-18 18:26 36.208226 -115.197776 177 2193ft 0kts
15-Jan-18 18:27 36.208226 -115.197776 177 2193ft 0kts
15-Jan-18 18:28 36.207696 -115.197069 106 2190ft 0kts
15-Jan-18 18:29 36.207348 -115.196345 87 2188ft 10kts
15-Jan-18 18:30 36.208803 -115.196352 316 2191ft 8kts
15-Jan-18 18:31 36.210800 -115.198962 323 2200ft 11kts
15-Jan-18 18:32 36.212521 -115.201047 353 2206ft 0kts
15-Jan-18 18:33 36.212716 -115.200740 77 2206ft 4kts
15-Jan-18 18:34 36.201024 -115.187146 159 2711ft 126kts
15-Jan-18 18:35 36.180119 -115.213631 253 5073ft 141kts
15-Jan-18 18:36 36.190215 -115.253907 277 5277ft 134kts
15-Jan-18 18:37 36.160727 -115.256793 131 6901ft 157kts
15-Jan-18 18:38 36.139875 -115.215716 101 9072ft 156kts
15-Jan-18 18:39 36.133163 -115.161873 72 10967ft 175kts
15-Jan-18 18:40 36.147312 -115.102482 67 13099ft 185kts
15-Jan-18 18:41 36.180386 -115.054130 42 15057ft 189kts
15-Jan-18 18:42 36.216096 -115.005551 41 16846ft 196kts
15-Jan-18 18:43 36.253635 -114.954994 40 18513ft 203kts
15-Jan-18 18:44 36.292041 -114.902381 42 20277ft 210kts
15-Jan-18 18:45 36.330729 -114.846343 42 22406ft 217kts
15-Jan-18 18:46 36.371096 -114.789989 38 24408ft 222kts
15-Jan-18 18:47 36.414808 -114.734141 37 26273ft 232kts
15-Jan-18 18:48 36.459917 -114.676357 36 28214ft 237kts
15-Jan-18 18:49 36.506355 -114.616805 35 29914ft 244kts
15-Jan-18 18:50 36.554743 -114.554796 36 31052ft 269kts
15-Jan-18 18:51 36.612061 -114.481356 37 31031ft 318kts
15-Jan-18 18:52 36.675501 -114.399478 38 31040ft 339kts
15-Jan-18 18:53 36.741601 -114.313867 39 31024ft 347kts
15-Jan-18 18:54 36.816720 -114.242885 24 31025ft 339kts
15-Jan-18 18:55 36.896362 -114.180908 27 31024ft 336kts
15-Jan-18 18:56 36.975135 -114.119066 26 31025ft 333kts
15-Jan-18 18:57 37.053121 -114.057818 26 31025ft 331kts
15-Jan-18 18:58 37.129963 -113.997660 28 31032ft 330kts
15-Jan-18 18:59 37.207613 -113.936302 26 31028ft 330kts
15-Jan-18 19:00 37.285432 -113.874966 26 31028ft 331kts
15-Jan-18 19:01 37.363125 -113.813616 27 31028ft 331kts
15-Jan-18 19:02 37.440462 -113.752410 27 31107ft 328kts
15-Jan-18 19:03 37.517615 -113.691508 28 31114ft 329kts
15-Jan-18 19:04 37.595088 -113.629649 27 31110ft 330kts
15-Jan-18 19:05 37.672530 -113.567963 27 31111ft 331kts
15-Jan-18 19:06 37.750074 -113.505917 27 31111ft 331kts
15-Jan-18 19:07 37.827437 -113.443851 27 31111ft 331kts
15-Jan-18 19:08 37.905150 -113.381384 27 31111ft 331kts
15-Jan-18 19:09 37.982058 -113.319441 28 31105ft 331kts
15-Jan-18 19:10 38.059108 -113.257230 28 31104ft 330kts
15-Jan-18 19:11 38.134518 -113.196230 28 31108ft 330kts
15-Jan-18 19:12 38.209619 -113.135343 28 31108ft 330kts
15-Jan-18 19:13 38.286816 -113.072607 28 31108ft 330kts
15-Jan-18 19:14 38.364820 -113.011682 18 31104ft 326kts
15-Jan-18 19:15 38.448191 -112.966960 18 31109ft 326kts
15-Jan-18 19:16 38.531721 -112.922249 19 31109ft 326kts
15-Jan-18 19:17 38.616009 -112.876926 18 30659ft 336kts
15-Jan-18 19:18 38.703243 -112.829757 16 29705ft 344kts
15-Jan-18 19:19 38.791055 -112.782455 16 28725ft 341kts
15-Jan-18 19:20 38.877437 -112.735837 17 27726ft 335kts
15-Jan-18 19:21 38.962793 -112.689663 17 26732ft 332kts
15-Jan-18 19:22 39.047000 -112.641580 17 25738ft 330kts
15-Jan-18 19:23 39.116182 -112.603257 20 24651ft 334kts
15-Jan-18 19:24 39.186843 -112.563298 18 23442ft 333kts
15-Jan-18 19:25 39.271162 -112.515960 18 21978ft 330kts
15-Jan-18 19:26 39.354632 -112.468943 19 20504ft 320kts
15-Jan-18 19:27 39.433085 -112.424669 19 19000ft 302kts
15-Jan-18 19:28 39.509335 -112.381502 19 17501ft 297kts
15-Jan-18 19:29 39.586119 -112.338134 21 16068ft 310kts
15-Jan-18 19:30 39.665244 -112.293398 23 15081ft 315kts
15-Jan-18 19:31 39.743448 -112.248790 24 14967ft 299kts
15-Jan-18 19:32 39.813718 -112.205431 46 14956ft 294kts
15-Jan-18 19:33 39.864943 -112.163526 20 15009ft 294kts
15-Jan-18 19:34 39.941846 -112.126714 20 15000ft 295kts
15-Jan-18 19:35 40.016972 -112.085405 24 14641ft 294kts
15-Jan-18 19:36 40.092996 -112.040905 27 13389ft 301kts
15-Jan-18 19:37 40.165766 -111.997330 25 12135ft 292kts
15-Jan-18 19:38 40.238453 -111.953700 23 10966ft 283kts
15-Jan-18 19:39 40.312156 -111.937701 5 10994ft 262kts
15-Jan-18 19:40 40.383641 -111.928060 5 10997ft 258kts
15-Jan-18 19:41 40.454584 -111.926143 356 10903ft 265kts
15-Jan-18 19:42 40.526259 -111.934198 355 9326ft 274kts
15-Jan-18 19:43 40.589067 -111.941729 354 7953ft 244kts
15-Jan-18 19:44 40.650505 -111.948893 354 6673ft 202kts
15-Jan-18 19:45 40.702961 -111.954583 355 5735ft 171kts
15-Jan-18 19:46 40.744906 -111.959756 352 4815ft 130kts
15-Jan-18 19:47 40.772568 -111.962060 359 4283ft 94kts
15-Jan-18 19:48 40.788573 -111.960805 50 4230ft 10kts
15-Jan-18 19:49 40.786227 -111.960011 179 4230ft 12kts
15-Jan-18 19:50 40.782012 -111.959970 177 4230ft 18kts
15-Jan-18 19:51 40.778635 -111.959212 185 4230ft 5kts
15-Jan-18 19:52 40.776701 -111.958422 356 4230ft 6kts
15-Jan-18 19:53 40.776760 -111.958431 358 4230ft 0kts
15-Jan-18 19:54 40.776760 -111.958431 358 4230ft 0kts
15-Jan-18 19:55 40.776760 -111.958431 358 4230ft 0kts
15-Jan-18 19:56 40.776760 -111.958431 358 4230ft 0kts
15-Jan-18 19:57 40.776760 -111.958431 358 4230ft 0kts
15-Jan-18 19:58 40.776760 -111.958431 358 4230ft 0kts
15-Jan-18 19:59 40.776760 -111.958431 358 4230ft 0kts
15-Jan-18 20:00 40.776760 -111.958431 358 4230ft 0kts
15-Jan-18 20:01 40.776760 -111.958431 358 4230ft 0kts
15-Jan-18 20:02 40.776760 -111.958431 358 4230ft 0kts
15-Jan-18 20:03 40.776760 -111.958431 358 4230ft 0kts

Navigation Log

Ident Type
Flight plan parsing failed, navigation log unavailable